createdAt,value
2022-10-11T00:02:06.259Z,13.10
2022-10-11T00:05:48.009Z,12.23
2022-10-11T00:09:30.147Z,17.42
2022-10-11T00:13:11.969Z,17.00
2022-10-11T00:16:54.053Z,16.77
2022-10-11T00:20:38.034Z,11.63
2022-10-11T00:24:19.790Z,13.20
2022-10-11T00:28:01.494Z,13.65
2022-10-11T00:31:43.369Z,14.40
2022-10-11T00:35:25.147Z,15.32
2022-10-11T00:39:06.824Z,8.65
2022-10-11T00:42:49.704Z,13.00
2022-10-11T00:46:32.356Z,10.33
2022-10-11T00:50:22.693Z,9.57
2022-10-11T00:54:04.588Z,9.60
2022-10-11T00:57:47.523Z,13.95
2022-10-11T01:01:30.967Z,7.83
2022-10-11T01:05:30.669Z,14.77
2022-10-11T01:09:12.495Z,9.95
2022-10-11T01:13:31.872Z,12.35
2022-10-11T01:17:24.942Z,8.02
2022-10-11T01:21:32.195Z,10.90
2022-10-11T01:25:28.072Z,16.30
2022-10-11T01:29:18.586Z,10.85
2022-10-11T01:33:17.154Z,9.25
2022-10-11T01:37:12.361Z,9.88
2022-10-11T01:40:57.654Z,11.45
2022-10-11T01:44:39.934Z,10.25
2022-10-11T01:48:21.651Z,8.93
2022-10-11T01:52:05.291Z,12.60
2022-10-11T01:56:06.039Z,12.20
2022-10-11T01:59:53.712Z,10.88
2022-10-11T02:03:41.237Z,10.27
2022-10-11T02:07:47.956Z,12.93
2022-10-11T02:11:33.901Z,14.30
2022-10-11T02:15:15.981Z,10.80
2022-10-11T02:18:57.871Z,12.65
2022-10-11T02:22:41.679Z,15.50
2022-10-11T02:30:07.601Z,21.38
2022-10-11T02:34:13.232Z,19.20
2022-10-11T02:38:16.878Z,15.50
2022-10-11T02:42:01.213Z,18.75
2022-10-11T02:45:45.138Z,12.90
2022-10-11T02:49:28.776Z,11.75
2022-10-11T02:53:11.098Z,11.25
2022-10-11T02:56:52.795Z,11.88
2022-10-11T03:00:34.695Z,10.40
2022-10-11T03:04:16.570Z,12.20
2022-10-11T03:07:58.236Z,11.48
2022-10-11T03:11:40.107Z,13.25
2022-10-11T03:15:21.777Z,16.42
2022-10-11T03:19:03.598Z,9.15
2022-10-11T03:22:45.559Z,12.85
2022-10-11T03:26:27.305Z,9.38
2022-10-11T03:30:12.540Z,12.75
2022-10-11T03:33:56.806Z,16.08
2022-10-11T03:37:38.524Z,11.77
2022-10-11T03:41:20.382Z,9.75
2022-10-11T03:45:04.972Z,11.05
2022-10-11T03:48:46.645Z,12.88
2022-10-11T03:52:28.699Z,12.07
2022-10-11T03:56:11.423Z,11.23
2022-10-11T03:59:53.223Z,12.95
2022-10-11T04:03:34.893Z,12.57
2022-10-11T04:07:16.623Z,8.77
2022-10-11T04:10:58.765Z,13.20
2022-10-11T04:14:40.617Z,11.93
2022-10-11T04:18:22.299Z,16.83
2022-10-11T04:22:05.146Z,12.15
2022-10-11T04:25:48.271Z,7.83
2022-10-11T04:29:32.627Z,13.95
2022-10-11T04:33:15.161Z,11.60
2022-10-11T04:36:56.896Z,9.77
2022-10-11T04:40:39.039Z,6.43
2022-10-11T04:44:20.788Z,11.40
2022-10-11T04:48:02.509Z,17.98
2022-10-11T04:51:44.609Z,9.85
2022-10-11T04:55:26.337Z,12.45
2022-10-11T04:59:08.011Z,10.48
2022-10-11T05:02:49.918Z,14.40
2022-10-11T05:06:31.609Z,10.55
2022-10-11T05:10:16.498Z,12.70
2022-10-11T05:13:58.220Z,14.40
2022-10-11T05:17:39.927Z,15.43
2022-10-11T05:21:26.426Z,15.55
2022-10-11T05:25:08.317Z,9.07
2022-10-11T05:28:50.149Z,11.55
2022-10-11T05:32:32.220Z,10.68
2022-10-11T05:36:14.141Z,12.80
2022-10-11T05:39:56.141Z,13.10
2022-10-11T05:43:37.826Z,11.73
2022-10-11T05:47:19.497Z,13.60
2022-10-11T05:51:06.476Z,9.48
2022-10-11T05:54:48.662Z,11.82
2022-10-11T05:58:31.321Z,14.50
2022-10-11T06:02:13.325Z,16.67
2022-10-11T06:05:57.219Z,14.40
2022-10-11T06:09:39.749Z,18.77
2022-10-11T06:13:21.638Z,12.52
2022-10-11T06:17:03.298Z,13.35
2022-10-11T06:20:45.094Z,17.75
2022-10-11T06:24:26.866Z,13.45
2022-10-11T06:28:08.643Z,17.85
2022-10-11T06:31:50.547Z,12.60
2022-10-11T06:35:32.239Z,16.30
2022-10-11T06:39:13.989Z,14.98
2022-10-11T06:42:56.829Z,8.25
2022-10-11T06:46:38.549Z,8.50
2022-10-11T06:50:40.801Z,11.40
2022-10-11T06:54:22.081Z,16.63
2022-10-11T06:58:03.847Z,8.18
2022-10-11T07:01:45.887Z,17.75
2022-10-11T07:05:29.392Z,11.07
2022-10-11T07:09:11.062Z,13.48
2022-10-11T07:12:53.136Z,13.95
2022-10-11T07:16:36.098Z,9.55
2022-10-11T07:20:17.986Z,15.70
2022-10-11T07:23:59.866Z,11.15
2022-10-11T07:27:41.565Z,18.45
2022-10-11T07:31:25.104Z,15.80
2022-10-11T07:35:07.094Z,14.82
2022-10-11T07:38:50.122Z,15.73
2022-10-11T07:42:33.407Z,15.50
2022-10-11T07:46:15.634Z,15.13
2022-10-11T07:49:57.551Z,18.00
2022-10-11T07:53:43.462Z,18.17
2022-10-11T07:57:25.137Z,12.45
2022-10-11T08:01:09.784Z,20.33
2022-10-11T08:04:51.475Z,18.65
2022-10-11T08:08:33.204Z,19.42
2022-10-11T08:12:15.993Z,20.50
2022-10-11T08:15:57.759Z,20.30
2022-10-11T08:19:39.667Z,12.80
2022-10-11T08:23:21.454Z,13.45
2022-10-11T08:27:03.150Z,12.75
2022-10-11T08:30:49.168Z,19.90
2022-10-11T08:34:30.898Z,23.08
2022-10-11T08:38:12.738Z,20.27
2022-10-11T08:42:03.620Z,17.08
2022-10-11T08:45:53.590Z,15.80
2022-10-11T08:49:35.363Z,12.85
2022-10-11T08:53:33.136Z,13.60
2022-10-11T08:57:22.485Z,11.40
2022-10-11T09:01:04.577Z,11.70
2022-10-11T09:04:47.642Z,14.60
2022-10-11T09:08:38.146Z,15.07
2022-10-11T09:12:34.242Z,17.58
2022-10-11T09:16:39.339Z,14.02
2022-10-11T09:20:50.647Z,17.07
2022-10-11T09:24:35.052Z,16.88
2022-10-11T09:28:22.906Z,14.10
2022-10-11T09:32:12.842Z,12.80
2022-10-11T09:35:55.595Z,15.38
2022-10-11T09:39:39.254Z,11.30
2022-10-11T09:43:21.250Z,11.77
2022-10-11T09:47:03.165Z,14.10
2022-10-11T09:50:45.185Z,11.32
2022-10-11T09:54:50.191Z,16.83
2022-10-11T09:58:35.603Z,11.63
2022-10-11T10:02:20.510Z,9.82
2022-10-11T10:06:26.377Z,12.27
2022-10-11T10:10:34.385Z,9.85
2022-10-11T10:14:26.358Z,13.57
2022-10-11T10:18:14.323Z,15.80
2022-10-11T10:21:58.213Z,13.05
2022-10-11T10:25:43.468Z,14.93
2022-10-11T10:29:25.485Z,16.88
2022-10-11T10:33:08.574Z,12.27
2022-10-11T10:37:08.416Z,15.18
2022-10-11T10:40:51.969Z,17.45
2022-10-11T10:44:33.656Z,8.90
2022-10-11T10:48:24.677Z,12.77
2022-10-11T10:52:24.465Z,14.85
2022-10-11T10:56:23.851Z,9.85
2022-10-11T11:00:12.524Z,14.63
2022-10-11T11:04:24.883Z,10.77
2022-10-11T11:08:27.847Z,9.00
2022-10-11T11:12:41.708Z,10.52
2022-10-11T11:16:44.866Z,10.13
2022-10-11T11:20:45.814Z,9.43
2022-10-11T11:24:47.163Z,6.97
2022-10-11T11:28:31.669Z,9.65
2022-10-11T11:32:35.146Z,10.85
2022-10-11T11:36:23.843Z,8.90
2022-10-11T11:40:26.973Z,9.32
2022-10-11T11:44:16.420Z,10.70
2022-10-11T11:48:06.678Z,11.65
2022-10-11T11:51:48.678Z,10.35
2022-10-11T11:55:52.744Z,9.32
2022-10-11T12:03:26.799Z,7.00
2022-10-11T12:07:16.279Z,11.43
2022-10-11T12:11:02.331Z,8.15
2022-10-11T12:14:44.355Z,9.75
2022-10-11T12:18:26.037Z,9.23
2022-10-11T12:22:38.358Z,9.68
2022-10-11T12:26:29.115Z,7.60
2022-10-11T12:30:47.906Z,7.20
2022-10-11T12:34:37.301Z,8.73
2022-10-11T12:38:24.952Z,9.52
2022-10-11T12:42:17.901Z,9.85
2022-10-11T12:46:28.556Z,8.83
2022-10-11T12:50:19.919Z,5.72
2022-10-11T12:54:25.990Z,9.90
2022-10-11T12:58:27.988Z,11.20
2022-10-11T13:02:22.322Z,6.97
2022-10-11T13:06:44.726Z,7.57
2022-10-11T13:10:29.299Z,5.57
2022-10-11T13:14:31.254Z,6.07
2022-10-11T13:18:16.321Z,8.07
2022-10-11T13:22:00.662Z,8.38
2022-10-11T13:25:42.343Z,6.22
2022-10-11T13:29:34.135Z,7.50
2022-10-11T13:33:37.535Z,9.82
2022-10-11T13:37:20.781Z,9.77
2022-10-11T13:41:10.258Z,7.35
2022-10-11T13:44:51.923Z,6.20
2022-10-11T13:48:39.693Z,9.32
2022-10-11T13:52:23.887Z,6.35
2022-10-11T13:56:06.512Z,12.40
2022-10-11T13:59:48.382Z,4.67
2022-10-11T14:03:49.866Z,4.47
2022-10-11T14:07:37.590Z,7.35
2022-10-11T14:11:36.058Z,7.95
2022-10-11T14:15:30.888Z,7.78
2022-10-11T14:19:12.570Z,14.80
2022-10-11T14:22:55.409Z,6.95
2022-10-11T14:26:48.225Z,5.87
2022-10-11T14:30:31.598Z,8.13
2022-10-11T14:34:31.817Z,6.25
2022-10-11T14:38:13.477Z,7.90
2022-10-11T14:41:55.240Z,6.07
2022-10-11T14:45:37.069Z,6.43
2022-10-11T14:49:26.832Z,6.85
2022-10-11T14:53:10.415Z,8.23
2022-10-11T15:00:35.062Z,6.65
2022-10-11T15:04:17.718Z,7.95
2022-10-11T15:07:59.415Z,6.43
2022-10-11T15:11:41.267Z,11.50
2022-10-11T15:15:24.869Z,7.63
2022-10-11T15:22:48.881Z,6.47
2022-10-11T15:26:30.643Z,6.00
2022-10-11T15:30:20.661Z,5.95
2022-10-11T15:34:02.334Z,6.22
2022-10-11T15:37:44.042Z,8.98
2022-10-11T15:41:25.878Z,10.57
2022-10-11T15:45:08.226Z,6.38
2022-10-11T15:48:50.866Z,7.13
2022-10-11T15:52:32.902Z,9.63
2022-10-11T15:56:16.829Z,14.48
2022-10-11T15:59:58.503Z,7.18
2022-10-11T16:03:40.224Z,7.57
2022-10-11T16:07:21.932Z,11.52
2022-10-11T16:11:05.534Z,6.43
2022-10-11T16:14:47.453Z,6.10
2022-10-11T16:18:34.900Z,7.13
2022-10-11T16:22:17.454Z,12.93
2022-10-11T16:26:00.492Z,8.95
2022-10-11T16:29:42.282Z,7.88
2022-10-11T16:33:25.365Z,5.72
2022-10-11T16:40:48.754Z,6.20
2022-10-11T16:44:30.464Z,7.97
2022-10-11T16:48:12.128Z,8.52
2022-10-11T16:51:55.118Z,9.35
2022-10-11T16:55:39.502Z,10.02
2022-10-11T16:59:21.190Z,8.52
2022-10-11T17:03:04.284Z,8.30
2022-10-11T17:06:46.061Z,10.05
2022-10-11T17:10:39.379Z,11.65
2022-10-11T17:14:22.017Z,10.98
2022-10-11T17:18:03.900Z,13.55
2022-10-11T17:21:45.743Z,10.65
2022-10-11T17:25:28.097Z,16.02
2022-10-11T17:29:12.990Z,13.38
2022-10-11T17:32:54.844Z,13.95
2022-10-11T17:36:36.534Z,12.55
2022-10-11T17:40:18.599Z,17.10
2022-10-11T17:44:01.220Z,10.90
2022-10-11T17:47:42.946Z,41.90
2022-10-11T17:51:24.778Z,21.10
2022-10-11T17:55:06.808Z,36.30
2022-10-11T17:58:49.238Z,12.48
2022-10-11T18:02:31.247Z,12.40
2022-10-11T18:06:13.668Z,10.43
2022-10-11T18:09:55.532Z,8.30
2022-10-11T18:13:37.244Z,9.48
2022-10-11T18:17:19.086Z,13.57
2022-10-11T18:21:02.394Z,15.93
2022-10-11T18:24:44.071Z,12.25
2022-10-11T18:28:25.910Z,13.32
2022-10-11T18:32:08.069Z,15.80
2022-10-11T18:35:49.744Z,10.88
2022-10-11T18:39:31.407Z,9.25
2022-10-11T18:43:14.495Z,11.98
2022-10-11T18:46:56.166Z,11.30
2022-10-11T18:50:39.098Z,10.30
2022-10-11T18:54:21.259Z,8.73
2022-10-11T18:58:03.312Z,13.20
2022-10-11T19:01:45.361Z,9.32
2022-10-11T19:05:27.699Z,9.13
2022-10-11T19:09:11.395Z,9.00
2022-10-11T19:12:53.320Z,17.88
2022-10-11T19:16:37.534Z,12.40
2022-10-11T19:20:19.354Z,10.25
2022-10-11T19:24:01.125Z,22.70
2022-10-11T19:27:45.798Z,25.40
2022-10-11T19:31:27.655Z,20.25
2022-10-11T19:35:09.847Z,24.83
2022-10-11T19:38:51.729Z,14.20
2022-10-11T19:42:34.023Z,15.75
2022-10-11T19:46:27.368Z,18.35
2022-10-11T19:50:19.871Z,15.98
2022-10-11T19:54:03.929Z,17.77
2022-10-11T19:57:45.591Z,17.42
2022-10-11T20:01:29.653Z,23.50
2022-10-11T20:05:11.394Z,20.52
2022-10-11T20:09:16.634Z,26.48
2022-10-11T20:12:54.985Z,20.13
2022-10-11T20:16:36.799Z,21.73
2022-10-11T20:20:18.970Z,16.42
2022-10-11T20:24:02.274Z,14.57
2022-10-11T20:27:44.002Z,23.08
2022-10-11T20:31:33.106Z,23.10
2022-10-11T20:35:15.029Z,27.25
2022-10-11T20:38:57.235Z,33.38
2022-10-11T20:42:39.186Z,26.77
2022-10-11T20:46:22.436Z,22.20
2022-10-11T20:50:04.554Z,28.70
2022-10-11T20:53:46.366Z,26.88
2022-10-11T20:57:28.098Z,22.20
2022-10-11T21:01:15.137Z,16.85
2022-10-11T21:04:56.937Z,15.75
2022-10-11T21:08:39.283Z,13.88
2022-10-11T21:12:22.196Z,23.73
2022-10-11T21:16:10.811Z,14.43
2022-10-11T21:19:52.556Z,17.50
2022-10-11T21:23:34.589Z,19.13
2022-10-11T21:27:16.290Z,26.65
2022-10-11T21:31:15.267Z,22.38
2022-10-11T21:34:57.036Z,15.88
2022-10-11T21:38:38.815Z,21.17
2022-10-11T21:42:20.664Z,14.82
2022-10-11T21:46:19.389Z,16.42
2022-10-11T21:50:02.305Z,12.38
2022-10-11T21:53:43.965Z,13.43
2022-10-11T21:57:25.641Z,9.23
2022-10-11T22:01:07.535Z,14.93
2022-10-11T22:04:49.259Z,16.58
2022-10-11T22:08:31.017Z,13.48
2022-10-11T22:12:14.338Z,15.23
2022-10-11T22:15:56.393Z,13.80
2022-10-11T22:19:39.255Z,11.68
2022-10-11T22:23:21.293Z,10.65
2022-10-11T22:27:03.049Z,12.02
2022-10-11T22:30:44.870Z,11.35
2022-10-11T22:34:29.786Z,14.02
2022-10-11T22:38:11.467Z,17.55
2022-10-11T22:41:54.183Z,12.57
2022-10-11T22:45:35.854Z,15.60
2022-10-11T22:49:17.673Z,13.85
2022-10-11T22:52:59.704Z,10.38
2022-10-11T22:56:41.378Z,17.13
2022-10-11T23:00:23.261Z,15.82
2022-10-11T23:04:05.073Z,14.90
2022-10-11T23:07:47.178Z,14.35
2022-10-11T23:11:28.999Z,17.17
2022-10-11T23:15:11.057Z,15.10
2022-10-11T23:18:53.496Z,14.07
2022-10-11T23:22:35.386Z,20.73
2022-10-11T23:26:17.162Z,19.85
2022-10-11T23:29:58.826Z,20.67
2022-10-11T23:33:40.634Z,22.45
2022-10-11T23:37:22.358Z,25.23
2022-10-11T23:41:04.365Z,23.88
2022-10-11T23:44:46.077Z,21.95
2022-10-11T23:48:27.789Z,20.48
2022-10-11T23:52:10.612Z,14.73
2022-10-11T23:55:52.313Z,14.05
2022-10-11T23:59:34.034Z,16.40
